sensor_id;sensor_type;location;lat;lon;timestamp;temperature;humidity
16955;DHT22;8594;52.052;8.354;2023-08-06T00:01:01;17.20;99.90
16955;DHT22;8594;52.052;8.354;2023-08-06T00:03:28;17.40;99.90
16955;DHT22;8594;52.052;8.354;2023-08-06T00:05:55;17.50;99.90
16955;DHT22;8594;52.052;8.354;2023-08-06T00:08:22;17.60;99.90
16955;DHT22;8594;52.052;8.354;2023-08-06T00:10:50;17.40;99.90
16955;DHT22;8594;52.052;8.354;2023-08-06T00:13:17;17.60;99.90
16955;DHT22;8594;52.052;8.354;2023-08-06T00:15:43;17.60;99.90
16955;DHT22;8594;52.052;8.354;2023-08-06T00:18:10;17.60;99.90
16955;DHT22;8594;52.052;8.354;2023-08-06T00:20:39;17.50;99.90
16955;DHT22;8594;52.052;8.354;2023-08-06T00:23:06;17.50;99.90
16955;DHT22;8594;52.052;8.354;2023-08-06T00:25:33;17.50;99.90
16955;DHT22;8594;52.052;8.354;2023-08-06T00:28:01;17.70;99.90
16955;DHT22;8594;52.052;8.354;2023-08-06T00:30:28;17.60;99.90
16955;DHT22;8594;52.052;8.354;2023-08-06T00:32:55;17.60;99.90
16955;DHT22;8594;52.052;8.354;2023-08-06T00:35:22;17.60;99.90
16955;DHT22;8594;52.052;8.354;2023-08-06T00:37:49;17.50;99.90
16955;DHT22;8594;52.052;8.354;2023-08-06T00:40:16;17.50;99.90
16955;DHT22;8594;52.052;8.354;2023-08-06T00:42:46;17.60;99.90
16955;DHT22;8594;52.052;8.354;2023-08-06T00:45:14;17.60;99.90
16955;DHT22;8594;52.052;8.354;2023-08-06T00:47:41;17.60;99.90
16955;DHT22;8594;52.052;8.354;2023-08-06T00:50:08;17.60;99.90
16955;DHT22;8594;52.052;8.354;2023-08-06T00:52:36;17.50;99.90
16955;DHT22;8594;52.052;8.354;2023-08-06T00:55:04;17.40;99.90
16955;DHT22;8594;52.052;8.354;2023-08-06T00:57:32;17.30;99.90
16955;DHT22;8594;52.052;8.354;2023-08-06T00:59:59;17.30;99.90
16955;DHT22;8594;52.052;8.354;2023-08-06T01:02:27;17.40;99.90
16955;DHT22;8594;52.052;8.354;2023-08-06T01:04:54;17.40;99.90
16955;DHT22;8594;52.052;8.354;2023-08-06T01:07:31;17.30;99.90
16955;DHT22;8594;52.052;8.354;2023-08-06T01:10:19;17.10;99.90
16955;DHT22;8594;52.052;8.354;2023-08-06T01:13:00;17.30;99.90
16955;DHT22;8594;52.052;8.354;2023-08-06T01:15:37;17.30;99.90
16955;DHT22;8594;52.052;8.354;2023-08-06T01:18:09;17.30;99.90
16955;DHT22;8594;52.052;8.354;2023-08-06T01:20:38;17.40;99.90
16955;DHT22;8594;52.052;8.354;2023-08-06T01:23:05;17.60;99.90
16955;DHT22;8594;52.052;8.354;2023-08-06T01:25:35;17.40;99.90
16955;DHT22;8594;52.052;8.354;2023-08-06T01:28:17;17.40;99.90
16955;DHT22;8594;52.052;8.354;2023-08-06T01:30:50;17.50;99.90
16955;DHT22;8594;52.052;8.354;2023-08-06T01:33:21;17.40;99.90
16955;DHT22;8594;52.052;8.354;2023-08-06T01:35:51;17.40;99.90
16955;DHT22;8594;52.052;8.354;2023-08-06T01:38:20;17.40;99.90
16955;DHT22;8594;52.052;8.354;2023-08-06T01:40:47;17.40;99.90
16955;DHT22;8594;52.052;8.354;2023-08-06T01:43:14;17.60;99.90
16955;DHT22;8594;52.052;8.354;2023-08-06T01:45:41;17.60;99.90
16955;DHT22;8594;52.052;8.354;2023-08-06T01:48:07;17.90;99.90
16955;DHT22;8594;52.052;8.354;2023-08-06T01:50:34;18.10;99.90
16955;DHT22;8594;52.052;8.354;2023-08-06T01:53:02;18.00;99.90
16955;DHT22;8594;52.052;8.354;2023-08-06T01:55:29;18.10;99.90
16955;DHT22;8594;52.052;8.354;2023-08-06T01:57:56;18.10;99.90
16955;DHT22;8594;52.052;8.354;2023-08-06T02:00:23;18.10;99.90
16955;DHT22;8594;52.052;8.354;2023-08-06T02:02:50;18.10;99.90
16955;DHT22;8594;52.052;8.354;2023-08-06T02:05:17;18.10;99.90
16955;DHT22;8594;52.052;8.354;2023-08-06T02:07:43;18.00;99.90
16955;DHT22;8594;52.052;8.354;2023-08-06T02:10:11;18.10;99.90
16955;DHT22;8594;52.052;8.354;2023-08-06T02:12:38;18.10;99.90
16955;DHT22;8594;52.052;8.354;2023-08-06T02:15:06;17.70;99.90
16955;DHT22;8594;52.052;8.354;2023-08-06T02:17:33;17.70;99.90
16955;DHT22;8594;52.052;8.354;2023-08-06T02:20:00;17.90;99.90
16955;DHT22;8594;52.052;8.354;2023-08-06T02:22:27;17.80;99.90
16955;DHT22;8594;52.052;8.354;2023-08-06T02:24:54;17.60;99.90
16955;DHT22;8594;52.052;8.354;2023-08-06T02:27:22;17.50;99.90
16955;DHT22;8594;52.052;8.354;2023-08-06T02:29:49;17.40;99.90
16955;DHT22;8594;52.052;8.354;2023-08-06T02:32:16;17.30;99.90
16955;DHT22;8594;52.052;8.354;2023-08-06T02:34:42;17.40;99.90
16955;DHT22;8594;52.052;8.354;2023-08-06T02:37:09;17.30;99.90
16955;DHT22;8594;52.052;8.354;2023-08-06T02:39:36;17.50;99.90
16955;DHT22;8594;52.052;8.354;2023-08-06T02:42:06;17.60;99.90
16955;DHT22;8594;52.052;8.354;2023-08-06T02:44:34;17.70;99.90
16955;DHT22;8594;52.052;8.354;2023-08-06T02:47:01;17.70;99.90
16955;DHT22;8594;52.052;8.354;2023-08-06T02:49:28;17.60;99.90
16955;DHT22;8594;52.052;8.354;2023-08-06T02:51:55;17.30;99.90
16955;DHT22;8594;52.052;8.354;2023-08-06T02:54:22;17.40;99.90
16955;DHT22;8594;52.052;8.354;2023-08-06T02:56:48;17.30;99.90
16955;DHT22;8594;52.052;8.354;2023-08-06T02:59:15;17.60;99.90
16955;DHT22;8594;52.052;8.354;2023-08-06T03:01:43;17.50;99.90
16955;DHT22;8594;52.052;8.354;2023-08-06T03:04:10;17.50;99.90
16955;DHT22;8594;52.052;8.354;2023-08-06T03:06:37;17.60;99.90
16955;DHT22;8594;52.052;8.354;2023-08-06T03:09:04;17.40;99.90
16955;DHT22;8594;52.052;8.354;2023-08-06T03:11:31;17.30;99.90
16955;DHT22;8594;52.052;8.354;2023-08-06T03:13:57;17.30;99.90
16955;DHT22;8594;52.052;8.354;2023-08-06T03:16:24;17.10;99.90
16955;DHT22;8594;52.052;8.354;2023-08-06T03:18:52;17.30;99.90
16955;DHT22;8594;52.052;8.354;2023-08-06T03:21:19;17.30;99.90
16955;DHT22;8594;52.052;8.354;2023-08-06T03:23:47;17.50;99.90
16955;DHT22;8594;52.052;8.354;2023-08-06T03:26:14;17.40;99.90
16955;DHT22;8594;52.052;8.354;2023-08-06T03:28:41;17.20;99.90
16955;DHT22;8594;52.052;8.354;2023-08-06T03:31:08;17.30;99.90
16955;DHT22;8594;52.052;8.354;2023-08-06T03:33:35;17.30;99.90
16955;DHT22;8594;52.052;8.354;2023-08-06T03:36:04;17.10;99.90
16955;DHT22;8594;52.052;8.354;2023-08-06T03:38:31;17.20;99.90
16955;DHT22;8594;52.052;8.354;2023-08-06T03:40:57;17.50;99.90
16955;DHT22;8594;52.052;8.354;2023-08-06T03:43:24;17.60;99.90
16955;DHT22;8594;52.052;8.354;2023-08-06T03:45:51;17.50;99.90
16955;DHT22;8594;52.052;8.354;2023-08-06T03:48:18;17.30;99.90
16955;DHT22;8594;52.052;8.354;2023-08-06T03:50:45;17.40;99.90
16955;DHT22;8594;52.052;8.354;2023-08-06T03:53:13;17.50;99.90
16955;DHT22;8594;52.052;8.354;2023-08-06T03:55:40;17.60;99.90
16955;DHT22;8594;52.052;8.354;2023-08-06T03:58:07;17.50;99.90
16955;DHT22;8594;52.052;8.354;2023-08-06T04:00:33;17.40;99.90
16955;DHT22;8594;52.052;8.354;2023-08-06T04:03:00;17.30;99.90
16955;DHT22;8594;52.052;8.354;2023-08-06T04:05:27;17.40;99.90
16955;DHT22;8594;52.052;8.354;2023-08-06T04:07:54;17.40;99.90
16955;DHT22;8594;52.052;8.354;2023-08-06T04:10:22;17.50;99.90
16955;DHT22;8594;52.052;8.354;2023-08-06T04:12:49;17.40;99.90
16955;DHT22;8594;52.052;8.354;2023-08-06T04:15:16;17.50;99.90
16955;DHT22;8594;52.052;8.354;2023-08-06T04:17:43;17.70;99.90
16955;DHT22;8594;52.052;8.354;2023-08-06T04:20:10;17.60;99.90
16955;DHT22;8594;52.052;8.354;2023-08-06T04:22:37;17.60;99.90
16955;DHT22;8594;52.052;8.354;2023-08-06T04:25:04;17.50;99.90
16955;DHT22;8594;52.052;8.354;2023-08-06T04:27:33;17.40;99.90
16955;DHT22;8594;52.052;8.354;2023-08-06T04:30:00;17.50;99.90
16955;DHT22;8594;52.052;8.354;2023-08-06T04:32:26;17.30;99.90
16955;DHT22;8594;52.052;8.354;2023-08-06T04:34:55;17.60;99.90
16955;DHT22;8594;52.052;8.354;2023-08-06T04:37:22;17.60;99.90
16955;DHT22;8594;52.052;8.354;2023-08-06T04:39:49;17.50;99.90
16955;DHT22;8594;52.052;8.354;2023-08-06T04:42:16;17.30;99.90
16955;DHT22;8594;52.052;8.354;2023-08-06T04:44:44;17.30;99.90
16955;DHT22;8594;52.052;8.354;2023-08-06T04:47:11;17.40;99.90
16955;DHT22;8594;52.052;8.354;2023-08-06T04:49:38;17.60;99.90
16955;DHT22;8594;52.052;8.354;2023-08-06T04:52:05;17.60;99.90
16955;DHT22;8594;52.052;8.354;2023-08-06T04:54:33;17.20;99.90
16955;DHT22;8594;52.052;8.354;2023-08-06T04:57:00;17.30;99.90
16955;DHT22;8594;52.052;8.354;2023-08-06T04:59:26;17.30;99.90
16955;DHT22;8594;52.052;8.354;2023-08-06T05:01:55;17.30;99.90
16955;DHT22;8594;52.052;8.354;2023-08-06T05:04:21;17.20;99.90
16955;DHT22;8594;52.052;8.354;2023-08-06T05:06:48;17.10;99.90
16955;DHT22;8594;52.052;8.354;2023-08-06T05:09:15;17.10;99.90
16955;DHT22;8594;52.052;8.354;2023-08-06T05:11:42;17.10;99.90
16955;DHT22;8594;52.052;8.354;2023-08-06T05:14:09;17.10;99.90
16955;DHT22;8594;52.052;8.354;2023-08-06T05:16:35;17.10;99.90
16955;DHT22;8594;52.052;8.354;2023-08-06T05:19:04;17.10;99.90
16955;DHT22;8594;52.052;8.354;2023-08-06T05:21:30;17.10;99.90
16955;DHT22;8594;52.052;8.354;2023-08-06T05:23:57;17.30;99.90
16955;DHT22;8594;52.052;8.354;2023-08-06T05:26:24;17.40;99.90
16955;DHT22;8594;52.052;8.354;2023-08-06T05:28:51;17.30;99.90
16955;DHT22;8594;52.052;8.354;2023-08-06T05:31:18;17.50;99.90
16955;DHT22;8594;52.052;8.354;2023-08-06T05:33:44;17.60;99.90
16955;DHT22;8594;52.052;8.354;2023-08-06T05:36:13;17.30;99.90
16955;DHT22;8594;52.052;8.354;2023-08-06T05:38:39;17.50;99.90
16955;DHT22;8594;52.052;8.354;2023-08-06T05:41:06;17.50;99.90
16955;DHT22;8594;52.052;8.354;2023-08-06T05:43:33;17.70;99.90
16955;DHT22;8594;52.052;8.354;2023-08-06T05:46:00;17.70;99.90
16955;DHT22;8594;52.052;8.354;2023-08-06T05:48:27;17.90;99.90
16955;DHT22;8594;52.052;8.354;2023-08-06T05:50:54;18.10;99.90
16955;DHT22;8594;52.052;8.354;2023-08-06T05:53:22;18.30;99.90
16955;DHT22;8594;52.052;8.354;2023-08-06T05:55:49;18.70;99.90
16955;DHT22;8594;52.052;8.354;2023-08-06T05:58:16;18.80;99.90
16955;DHT22;8594;52.052;8.354;2023-08-06T06:00:45;19.10;99.90
16955;DHT22;8594;52.052;8.354;2023-08-06T06:03:12;19.30;99.90
16955;DHT22;8594;52.052;8.354;2023-08-06T06:05:39;19.60;99.90
16955;DHT22;8594;52.052;8.354;2023-08-06T06:08:06;19.80;99.90
16955;DHT22;8594;52.052;8.354;2023-08-06T06:10:35;20.00;99.90
16955;DHT22;8594;52.052;8.354;2023-08-06T06:13:01;20.30;99.90
16955;DHT22;8594;52.052;8.354;2023-08-06T06:15:28;20.30;99.90
16955;DHT22;8594;52.052;8.354;2023-08-06T06:17:55;20.50;99.90
16955;DHT22;8594;52.052;8.354;2023-08-06T06:20:22;20.40;99.90
16955;DHT22;8594;52.052;8.354;2023-08-06T06:22:49;20.60;99.90
16955;DHT22;8594;52.052;8.354;2023-08-06T06:25:16;20.80;99.90
16955;DHT22;8594;52.052;8.354;2023-08-06T06:27:44;21.10;99.90
16955;DHT22;8594;52.052;8.354;2023-08-06T06:30:11;20.90;99.90
16955;DHT22;8594;52.052;8.354;2023-08-06T06:32:38;20.80;99.90
16955;DHT22;8594;52.052;8.354;2023-08-06T06:35:07;21.00;99.90
16955;DHT22;8594;52.052;8.354;2023-08-06T06:37:34;20.70;99.90
16955;DHT22;8594;52.052;8.354;2023-08-06T06:40:01;20.60;99.90
16955;DHT22;8594;52.052;8.354;2023-08-06T06:42:29;20.60;99.90
16955;DHT22;8594;52.052;8.354;2023-08-06T06:44:57;20.50;99.90
16955;DHT22;8594;52.052;8.354;2023-08-06T06:47:24;20.50;99.90
16955;DHT22;8594;52.052;8.354;2023-08-06T06:49:50;20.30;99.90
16955;DHT22;8594;52.052;8.354;2023-08-06T06:52:17;20.40;99.90
16955;DHT22;8594;52.052;8.354;2023-08-06T06:54:44;20.30;99.90
16955;DHT22;8594;52.052;8.354;2023-08-06T06:57:11;20.40;99.90
16955;DHT22;8594;52.052;8.354;2023-08-06T06:59:38;20.40;99.90
16955;DHT22;8594;52.052;8.354;2023-08-06T07:02:07;20.50;99.90
16955;DHT22;8594;52.052;8.354;2023-08-06T07:04:33;20.60;99.90
16955;DHT22;8594;52.052;8.354;2023-08-06T07:07:00;20.40;99.90
16955;DHT22;8594;52.052;8.354;2023-08-06T07:09:27;20.20;99.90
16955;DHT22;8594;52.052;8.354;2023-08-06T07:11:54;20.20;99.90
16955;DHT22;8594;52.052;8.354;2023-08-06T07:14:21;20.40;99.90
16955;DHT22;8594;52.052;8.354;2023-08-06T07:16:48;20.40;99.90
16955;DHT22;8594;52.052;8.354;2023-08-06T07:19:16;20.60;99.90
16955;DHT22;8594;52.052;8.354;2023-08-06T07:21:44;20.50;99.90
16955;DHT22;8594;52.052;8.354;2023-08-06T07:24:11;20.60;99.90
16955;DHT22;8594;52.052;8.354;2023-08-06T07:26:38;20.70;99.90
16955;DHT22;8594;52.052;8.354;2023-08-06T07:29:05;20.90;99.90
16955;DHT22;8594;52.052;8.354;2023-08-06T07:31:31;21.40;99.90
16955;DHT22;8594;52.052;8.354;2023-08-06T07:33:58;21.60;99.90
16955;DHT22;8594;52.052;8.354;2023-08-06T07:36:27;21.90;99.90
16955;DHT22;8594;52.052;8.354;2023-08-06T07:38:53;22.00;99.90
16955;DHT22;8594;52.052;8.354;2023-08-06T07:41:22;22.30;99.90
16955;DHT22;8594;52.052;8.354;2023-08-06T07:43:49;22.70;99.90
16955;DHT22;8594;52.052;8.354;2023-08-06T07:46:16;22.80;99.90
16955;DHT22;8594;52.052;8.354;2023-08-06T07:48:43;22.70;99.90
16955;DHT22;8594;52.052;8.354;2023-08-06T07:51:09;22.30;99.90
16955;DHT22;8594;52.052;8.354;2023-08-06T07:53:38;22.20;99.90
16955;DHT22;8594;52.052;8.354;2023-08-06T07:56:04;21.90;99.90
16955;DHT22;8594;52.052;8.354;2023-08-06T07:58:31;21.70;99.90
16955;DHT22;8594;52.052;8.354;2023-08-06T08:00:58;21.90;99.90
16955;DHT22;8594;52.052;8.354;2023-08-06T08:03:25;21.90;99.90
16955;DHT22;8594;52.052;8.354;2023-08-06T08:05:54;21.80;99.90
16955;DHT22;8594;52.052;8.354;2023-08-06T08:08:23;21.60;99.90
16955;DHT22;8594;52.052;8.354;2023-08-06T08:10:52;21.80;99.90
16955;DHT22;8594;52.052;8.354;2023-08-06T08:13:20;21.60;99.90
16955;DHT22;8594;52.052;8.354;2023-08-06T08:15:47;21.50;99.90
16955;DHT22;8594;52.052;8.354;2023-08-06T08:18:14;21.40;99.90
16955;DHT22;8594;52.052;8.354;2023-08-06T08:20:41;21.30;99.90
16955;DHT22;8594;52.052;8.354;2023-08-06T08:23:07;21.40;99.90
16955;DHT22;8594;52.052;8.354;2023-08-06T08:25:34;21.40;99.90
16955;DHT22;8594;52.052;8.354;2023-08-06T08:28:02;21.70;99.90
16955;DHT22;8594;52.052;8.354;2023-08-06T08:30:29;21.80;99.90
16955;DHT22;8594;52.052;8.354;2023-08-06T08:32:56;21.80;99.90
16955;DHT22;8594;52.052;8.354;2023-08-06T08:35:23;21.60;99.90
16955;DHT22;8594;52.052;8.354;2023-08-06T08:37:50;21.70;99.90
16955;DHT22;8594;52.052;8.354;2023-08-06T08:40:17;21.50;99.90
16955;DHT22;8594;52.052;8.354;2023-08-06T08:42:44;21.50;99.90
16955;DHT22;8594;52.052;8.354;2023-08-06T08:45:14;21.60;99.90
16955;DHT22;8594;52.052;8.354;2023-08-06T08:47:42;21.60;99.90
16955;DHT22;8594;52.052;8.354;2023-08-06T08:50:10;21.80;99.90
16955;DHT22;8594;52.052;8.354;2023-08-06T08:52:39;21.70;99.90
16955;DHT22;8594;52.052;8.354;2023-08-06T08:55:07;21.70;99.90
16955;DHT22;8594;52.052;8.354;2023-08-06T08:57:35;21.80;99.90
16955;DHT22;8594;52.052;8.354;2023-08-06T09:00:03;21.70;99.90
16955;DHT22;8594;52.052;8.354;2023-08-06T09:02:33;21.80;99.90
16955;DHT22;8594;52.052;8.354;2023-08-06T09:05:01;21.80;99.90
16955;DHT22;8594;52.052;8.354;2023-08-06T09:07:35;21.80;99.90
16955;DHT22;8594;52.052;8.354;2023-08-06T09:10:10;21.80;99.90
16955;DHT22;8594;52.052;8.354;2023-08-06T09:12:39;22.00;99.90
16955;DHT22;8594;52.052;8.354;2023-08-06T09:15:07;21.80;99.90
16955;DHT22;8594;52.052;8.354;2023-08-06T09:17:36;21.80;99.90
16955;DHT22;8594;52.052;8.354;2023-08-06T09:20:11;21.80;99.90
16955;DHT22;8594;52.052;8.354;2023-08-06T09:22:39;21.90;99.90
16955;DHT22;8594;52.052;8.354;2023-08-06T09:25:07;22.00;99.90
16955;DHT22;8594;52.052;8.354;2023-08-06T09:27:36;22.10;99.90
16955;DHT22;8594;52.052;8.354;2023-08-06T09:30:05;22.40;99.90
16955;DHT22;8594;52.052;8.354;2023-08-06T09:32:48;22.70;99.90
16955;DHT22;8594;52.052;8.354;2023-08-06T09:35:17;23.00;99.90
16955;DHT22;8594;52.052;8.354;2023-08-06T09:37:45;22.80;99.90
16955;DHT22;8594;52.052;8.354;2023-08-06T09:40:25;22.60;99.90
16955;DHT22;8594;52.052;8.354;2023-08-06T09:42:53;22.60;99.90
16955;DHT22;8594;52.052;8.354;2023-08-06T09:45:20;22.50;99.90
16955;DHT22;8594;52.052;8.354;2023-08-06T09:47:50;22.50;99.90
16955;DHT22;8594;52.052;8.354;2023-08-06T09:50:17;22.50;99.90
16955;DHT22;8594;52.052;8.354;2023-08-06T09:52:45;22.40;99.90
16955;DHT22;8594;52.052;8.354;2023-08-06T09:55:14;22.40;99.90
16955;DHT22;8594;52.052;8.354;2023-08-06T09:57:43;22.50;99.90
16955;DHT22;8594;52.052;8.354;2023-08-06T10:00:11;22.60;99.90
16955;DHT22;8594;52.052;8.354;2023-08-06T10:02:39;22.50;99.90
16955;DHT22;8594;52.052;8.354;2023-08-06T10:05:09;22.30;99.90
16955;DHT22;8594;52.052;8.354;2023-08-06T10:07:36;22.30;99.90
16955;DHT22;8594;52.052;8.354;2023-08-06T10:10:05;22.30;99.90
16955;DHT22;8594;52.052;8.354;2023-08-06T10:12:36;22.30;99.90
16955;DHT22;8594;52.052;8.354;2023-08-06T10:15:10;22.40;99.90
16955;DHT22;8594;52.052;8.354;2023-08-06T10:17:39;22.50;99.90
16955;DHT22;8594;52.052;8.354;2023-08-06T10:20:09;22.70;99.90
16955;DHT22;8594;52.052;8.354;2023-08-06T10:22:36;22.80;99.90
16955;DHT22;8594;52.052;8.354;2023-08-06T10:25:09;22.80;99.90
16955;DHT22;8594;52.052;8.354;2023-08-06T10:27:40;22.90;99.90
16955;DHT22;8594;52.052;8.354;2023-08-06T10:30:23;23.00;99.90
16955;DHT22;8594;52.052;8.354;2023-08-06T10:32:52;22.90;99.90
16955;DHT22;8594;52.052;8.354;2023-08-06T10:35:35;23.20;99.90
16955;DHT22;8594;52.052;8.354;2023-08-06T10:38:07;23.50;99.90
16955;DHT22;8594;52.052;8.354;2023-08-06T10:40:36;23.80;99.90
16955;DHT22;8594;52.052;8.354;2023-08-06T10:43:05;24.20;99.90
16955;DHT22;8594;52.052;8.354;2023-08-06T10:45:34;24.10;99.90
16955;DHT22;8594;52.052;8.354;2023-08-06T10:48:03;24.10;99.90
16955;DHT22;8594;52.052;8.354;2023-08-06T10:50:32;24.20;99.90
16955;DHT22;8594;52.052;8.354;2023-08-06T10:53:04;24.30;99.90
16955;DHT22;8594;52.052;8.354;2023-08-06T10:55:32;24.50;99.90
16955;DHT22;8594;52.052;8.354;2023-08-06T10:57:59;24.40;99.90
16955;DHT22;8594;52.052;8.354;2023-08-06T11:00:26;24.20;99.90
16955;DHT22;8594;52.052;8.354;2023-08-06T11:02:53;24.10;99.90
16955;DHT22;8594;52.052;8.354;2023-08-06T11:05:21;24.10;99.90
16955;DHT22;8594;52.052;8.354;2023-08-06T11:07:49;24.00;99.90
16955;DHT22;8594;52.052;8.354;2023-08-06T11:10:17;24.20;99.90
16955;DHT22;8594;52.052;8.354;2023-08-06T11:12:44;24.60;99.90
16955;DHT22;8594;52.052;8.354;2023-08-06T11:15:11;24.70;99.90
16955;DHT22;8594;52.052;8.354;2023-08-06T11:17:39;24.80;99.90
16955;DHT22;8594;52.052;8.354;2023-08-06T11:20:08;25.10;99.90
16955;DHT22;8594;52.052;8.354;2023-08-06T11:22:36;25.40;99.90
16955;DHT22;8594;52.052;8.354;2023-08-06T11:25:07;25.70;99.90
16955;DHT22;8594;52.052;8.354;2023-08-06T11:27:34;25.30;99.90
16955;DHT22;8594;52.052;8.354;2023-08-06T11:30:01;25.00;99.90
16955;DHT22;8594;52.052;8.354;2023-08-06T11:32:28;24.90;99.90
16955;DHT22;8594;52.052;8.354;2023-08-06T11:34:56;24.70;99.90
16955;DHT22;8594;52.052;8.354;2023-08-06T11:37:23;24.60;99.90
16955;DHT22;8594;52.052;8.354;2023-08-06T11:39:51;24.20;99.90
16955;DHT22;8594;52.052;8.354;2023-08-06T11:42:19;24.10;99.90
16955;DHT22;8594;52.052;8.354;2023-08-06T11:44:47;24.00;99.90
16955;DHT22;8594;52.052;8.354;2023-08-06T11:47:15;23.50;99.90
16955;DHT22;8594;52.052;8.354;2023-08-06T11:49:44;23.40;99.90
16955;DHT22;8594;52.052;8.354;2023-08-06T11:52:17;23.30;99.90
16955;DHT22;8594;52.052;8.354;2023-08-06T11:54:47;23.10;99.90
16955;DHT22;8594;52.052;8.354;2023-08-06T11:57:15;23.20;99.90
16955;DHT22;8594;52.052;8.354;2023-08-06T11:59:44;23.50;99.90
16955;DHT22;8594;52.052;8.354;2023-08-06T12:02:11;23.30;99.90
16955;DHT22;8594;52.052;8.354;2023-08-06T12:04:58;23.30;99.90
16955;DHT22;8594;52.052;8.354;2023-08-06T12:07:31;23.10;99.90
16955;DHT22;8594;52.052;8.354;2023-08-06T12:09:59;22.90;99.90
16955;DHT22;8594;52.052;8.354;2023-08-06T12:12:26;23.10;99.90
16955;DHT22;8594;52.052;8.354;2023-08-06T12:14:55;23.40;99.90
16955;DHT22;8594;52.052;8.354;2023-08-06T12:17:23;23.40;99.90
16955;DHT22;8594;52.052;8.354;2023-08-06T12:19:50;23.50;99.90
16955;DHT22;8594;52.052;8.354;2023-08-06T12:22:18;23.70;99.90
16955;DHT22;8594;52.052;8.354;2023-08-06T12:24:45;23.60;99.90
16955;DHT22;8594;52.052;8.354;2023-08-06T12:27:13;23.80;99.90
16955;DHT22;8594;52.052;8.354;2023-08-06T12:29:42;24.10;99.90
16955;DHT22;8594;52.052;8.354;2023-08-06T12:32:11;24.50;99.90
16955;DHT22;8594;52.052;8.354;2023-08-06T12:34:38;24.40;99.90
16955;DHT22;8594;52.052;8.354;2023-08-06T12:37:05;24.50;99.90
16955;DHT22;8594;52.052;8.354;2023-08-06T12:39:33;24.30;99.90
16955;DHT22;8594;52.052;8.354;2023-08-06T12:42:00;24.30;99.90
16955;DHT22;8594;52.052;8.354;2023-08-06T12:44:28;24.70;99.90
16955;DHT22;8594;52.052;8.354;2023-08-06T12:46:54;24.80;99.90
16955;DHT22;8594;52.052;8.354;2023-08-06T12:49:24;24.80;99.90
16955;DHT22;8594;52.052;8.354;2023-08-06T12:51:52;24.90;99.90
16955;DHT22;8594;52.052;8.354;2023-08-06T12:54:20;24.50;99.90
16955;DHT22;8594;52.052;8.354;2023-08-06T12:56:47;24.30;99.90
16955;DHT22;8594;52.052;8.354;2023-08-06T12:59:16;24.20;99.90
16955;DHT22;8594;52.052;8.354;2023-08-06T13:01:44;24.00;99.90
16955;DHT22;8594;52.052;8.354;2023-08-06T13:04:12;24.00;99.90
16955;DHT22;8594;52.052;8.354;2023-08-06T13:06:41;23.80;99.90
16955;DHT22;8594;52.052;8.354;2023-08-06T13:09:08;23.70;99.90
16955;DHT22;8594;52.052;8.354;2023-08-06T13:11:36;23.80;99.90
16955;DHT22;8594;52.052;8.354;2023-08-06T13:14:05;23.70;99.90
16955;DHT22;8594;52.052;8.354;2023-08-06T13:16:33;23.60;99.90
16955;DHT22;8594;52.052;8.354;2023-08-06T13:19:01;23.60;99.90
16955;DHT22;8594;52.052;8.354;2023-08-06T13:21:32;23.50;99.90
16955;DHT22;8594;52.052;8.354;2023-08-06T13:24:02;23.40;99.90
16955;DHT22;8594;52.052;8.354;2023-08-06T13:26:30;23.40;99.90
16955;DHT22;8594;52.052;8.354;2023-08-06T13:28:57;23.50;99.90
16955;DHT22;8594;52.052;8.354;2023-08-06T13:31:25;23.30;99.90
16955;DHT22;8594;52.052;8.354;2023-08-06T13:33:54;23.20;99.90
16955;DHT22;8594;52.052;8.354;2023-08-06T13:36:23;23.20;99.90
16955;DHT22;8594;52.052;8.354;2023-08-06T13:38:50;23.20;99.90
16955;DHT22;8594;52.052;8.354;2023-08-06T13:41:19;23.40;99.90
16955;DHT22;8594;52.052;8.354;2023-08-06T13:43:46;23.20;99.90
16955;DHT22;8594;52.052;8.354;2023-08-06T13:46:13;23.20;99.90
16955;DHT22;8594;52.052;8.354;2023-08-06T13:48:44;23.20;99.90
16955;DHT22;8594;52.052;8.354;2023-08-06T13:51:11;23.20;99.90
16955;DHT22;8594;52.052;8.354;2023-08-06T13:53:39;23.10;99.90
16955;DHT22;8594;52.052;8.354;2023-08-06T13:56:07;23.00;99.90
16955;DHT22;8594;52.052;8.354;2023-08-06T13:58:36;22.60;99.90
16955;DHT22;8594;52.052;8.354;2023-08-06T14:01:03;22.40;99.90
16955;DHT22;8594;52.052;8.354;2023-08-06T14:03:30;22.40;99.90
16955;DHT22;8594;52.052;8.354;2023-08-06T14:05:57;22.30;99.90
16955;DHT22;8594;52.052;8.354;2023-08-06T14:08:24;22.20;99.90
16955;DHT22;8594;52.052;8.354;2023-08-06T14:10:51;21.90;99.90
16955;DHT22;8594;52.052;8.354;2023-08-06T14:13:19;21.70;99.90
16955;DHT22;8594;52.052;8.354;2023-08-06T14:15:47;21.60;99.90
16955;DHT22;8594;52.052;8.354;2023-08-06T14:18:15;22.10;99.90
16955;DHT22;8594;52.052;8.354;2023-08-06T14:20:43;22.30;99.90
16955;DHT22;8594;52.052;8.354;2023-08-06T14:23:10;22.30;99.90
16955;DHT22;8594;52.052;8.354;2023-08-06T14:25:38;22.30;99.90
16955;DHT22;8594;52.052;8.354;2023-08-06T14:28:05;22.30;99.90
16955;DHT22;8594;52.052;8.354;2023-08-06T14:30:33;22.40;99.90
16955;DHT22;8594;52.052;8.354;2023-08-06T14:33:01;22.40;99.90
16955;DHT22;8594;52.052;8.354;2023-08-06T14:35:28;22.30;99.90
16955;DHT22;8594;52.052;8.354;2023-08-06T14:37:55;22.00;99.90
16955;DHT22;8594;52.052;8.354;2023-08-06T14:40:22;21.70;99.90
16955;DHT22;8594;52.052;8.354;2023-08-06T14:42:51;21.80;99.90
16955;DHT22;8594;52.052;8.354;2023-08-06T14:45:18;21.70;99.90
16955;DHT22;8594;52.052;8.354;2023-08-06T14:47:44;21.60;99.90
16955;DHT22;8594;52.052;8.354;2023-08-06T14:50:13;21.50;99.90
16955;DHT22;8594;52.052;8.354;2023-08-06T14:52:40;21.50;99.90
16955;DHT22;8594;52.052;8.354;2023-08-06T14:55:07;21.50;99.90
16955;DHT22;8594;52.052;8.354;2023-08-06T14:57:34;21.40;99.90
16955;DHT22;8594;52.052;8.354;2023-08-06T15:00:01;21.40;99.90
16955;DHT22;8594;52.052;8.354;2023-08-06T15:02:29;21.30;99.90
16955;DHT22;8594;52.052;8.354;2023-08-06T15:04:56;21.30;99.90
16955;DHT22;8594;52.052;8.354;2023-08-06T15:07:24;21.30;99.90
16955;DHT22;8594;52.052;8.354;2023-08-06T15:09:53;21.20;99.90
16955;DHT22;8594;52.052;8.354;2023-08-06T15:12:21;21.20;99.90
16955;DHT22;8594;52.052;8.354;2023-08-06T15:14:48;21.10;99.90
16955;DHT22;8594;52.052;8.354;2023-08-06T15:17:15;21.20;99.90
16955;DHT22;8594;52.052;8.354;2023-08-06T15:19:42;21.20;99.90
16955;DHT22;8594;52.052;8.354;2023-08-06T15:22:09;21.20;99.90
16955;DHT22;8594;52.052;8.354;2023-08-06T15:24:39;21.20;99.90
16955;DHT22;8594;52.052;8.354;2023-08-06T15:27:07;21.10;99.90
16955;DHT22;8594;52.052;8.354;2023-08-06T15:29:35;20.80;99.90
16955;DHT22;8594;52.052;8.354;2023-08-06T15:32:02;20.60;99.90
16955;DHT22;8594;52.052;8.354;2023-08-06T15:34:30;20.30;99.90
16955;DHT22;8594;52.052;8.354;2023-08-06T15:36:57;20.20;99.90
16955;DHT22;8594;52.052;8.354;2023-08-06T15:39:24;20.20;99.90
16955;DHT22;8594;52.052;8.354;2023-08-06T15:41:52;20.10;99.90
16955;DHT22;8594;52.052;8.354;2023-08-06T15:44:19;20.30;99.90
16955;DHT22;8594;52.052;8.354;2023-08-06T15:46:45;20.40;99.90
16955;DHT22;8594;52.052;8.354;2023-08-06T15:49:12;20.10;99.90